地図

経路データ

SID SEASON NUMBER BASIN SUBBASIN NAME ISO_TIME NATURE LAT LON WMO_WIND WMO_PRES WMO_AGENCY TRACK_TYPE DIST2LAND LANDFALL IFLAG USA_AGENCY USA_ATCF_ID USA_LAT USA_LON USA_RECORD USA_STATUS USA_WIND USA_PRES USA_SSHS USA_R34_NE USA_R34_SE USA_R34_SW USA_R34_NW USA_R50_NE USA_R50_SE USA_R50_SW USA_R50_NW USA_R64_NE USA_R64_SE USA_R64_SW USA_R64_NW USA_POCI USA_ROCI USA_RMW USA_EYE TOKYO_LAT TOKYO_LON TOKYO_GRADE TOKYO_WIND TOKYO_PRES TOKYO_R50_DIR TOKYO_R50_LONG TOKYO_R50_SHORT TOKYO_R30_DIR TOKYO_R30_LONG TOKYO_R30_SHORT TOKYO_LAND CMA_LAT CMA_LON CMA_CAT CMA_WIND CMA_PRES HKO_LAT HKO_LON HKO_CAT HKO_WIND HKO_PRES NEWDELHI_LAT NEWDELHI_LON NEWDELHI_GRADE NEWDELHI_WIND NEWDELHI_PRES NEWDELHI_CI NEWDELHI_DP NEWDELHI_POCI REUNION_LAT REUNION_LON REUNION_TYPE REUNION_WIND REUNION_PRES REUNION_TNUM REUNION_CI REUNION_RMW REUNION_R34_NE REUNION_R34_SE REUNION_R34_SW REUNION_R34_NW REUNION_R50_NE REUNION_R50_SE REUNION_R50_SW REUNION_R50_NW REUNION_R64_NE REUNION_R64_SE REUNION_R64_SW REUNION_R64_NW BOM_LAT BOM_LON BOM_TYPE BOM_WIND BOM_PRES BOM_TNUM BOM_CI BOM_RMW BOM_R34_NE BOM_R34_SE BOM_R34_SW BOM_R34_NW BOM_R50_NE BOM_R50_SE BOM_R50_SW BOM_R50_NW BOM_R64_NE BOM_R64_SE BOM_R64_SW BOM_R64_NW BOM_ROCI BOM_POCI BOM_EYE BOM_POS_METHOD BOM_PRES_METHOD NADI_LAT NADI_LON NADI_CAT NADI_WIND NADI_PRES WELLINGTON_LAT WELLINGTON_LON WELLINGTON_WIND WELLINGTON_PRES DS824_LAT DS824_LON DS824_STAGE DS824_WIND DS824_PRES TD9636_LAT TD9636_LON TD9636_STAGE TD9636_WIND TD9636_PRES TD9635_LAT TD9635_LON TD9635_WIND TD9635_PRES TD9635_ROCI NEUMANN_LAT NEUMANN_LON NEUMANN_CLASS NEUMANN_WIND NEUMANN_PRES MLC_LAT MLC_LON MLC_CLASS MLC_WIND MLC_PRES USA_GUST BOM_GUST BOM_GUST_PER REUNION_GUST REUNION_GUST_PER USA_SEAHGT USA_SEARAD_NE USA_SEARAD_SE USA_SEARAD_SW USA_SEARAD_NW STORM_SPEED STORM_DIR
1853242N12336 1853 7 NA NA NOT_NAMED 1853-08-30 00:00:00 TS 11.7667 -23.8667 40 hurdat_atl main 765 765 O____________O hurdat_atl AL031853 12.1000 -23.2000 TS 40 0 11.1000 -25.2000 TD 30 18 277
1853242N12336 1853 7 NA NA NOT_NAMED 1853-08-30 03:00:00 TS 11.8689 -24.7832 main 850 850 P____________P AL031853 12.2032 -24.1498 TS 40 0 11.2005 -26.0499 TD 30 18 276
1853242N12336 1853 7 NA NA NOT_NAMED 1853-08-30 06:00:00 TS 11.9667 -25.7000 40 hurdat_atl main 937 937 O____________O hurdat_atl AL031853 12.3000 -25.1000 TS 40 0 11.3000 -26.9000 TD 30 18 276
1853242N12336 1853 7 NA NA NOT_NAMED 1853-08-30 09:00:00 TS 12.0614 -26.6168 main 1026 1026 P____________P AL031853 12.3922 -26.0502 TS 40 0 11.3998 -27.7501 TD 35 18 276
1853242N12336 1853 7 NA NA NOT_NAMED 1853-08-30 12:00:00 TS 12.1667 -27.5333 40 hurdat_atl main 1117 1117 O____________O hurdat_atl AL031853 12.5000 -27.0000 TS 40 0 11.5000 -28.6000 TS 40 18 278
1853242N12336 1853 7 NA NA NOT_NAMED 1853-08-30 15:00:00 TS 12.2971 -28.4450 main 1209 1209 P____________P AL031853 12.6496 -27.9425 TS 40 0 11.5923 -29.4501 TS 45 18 278
1853242N12336 1853 7 NA NA NOT_NAMED 1853-08-30 18:00:00 TS 12.4333 -29.3667 40 hurdat_atl main 1312 1312 O____________O hurdat_atl AL031853 12.8000 -28.9000 TS 40 0 11.7000 -30.3000 TS 50 18 278
1853242N12336 1853 7 NA NA NOT_NAMED 1853-08-30 21:00:00 TS 12.5497 -30.3068 main 1405 1405 P____________P AL031853 12.8996 -29.8853 TS 45 0 11.8497 -31.1500 TS 50 19 277
1853242N12336 1853 7 NA NA NOT_NAMED 1853-08-31 00:00:00 TS 12.6667 -31.2667 50 hurdat_atl main 1508 1508 O____________O hurdat_atl AL031853 13.0000 -30.9000 TS 50 0 12.0000 -32.0000 TS 50 19 277
1853242N12336 1853 7 NA NA NOT_NAMED 1853-08-31 03:00:00 TS 12.7973 -32.2500 main 1613 1613 P____________P AL031853 13.1423 -31.9500 TS 50 0 12.1072 -32.8501 TS 55 19 278
1853242N12336 1853 7 NA NA NOT_NAMED 1853-08-31 06:00:00 TS 12.9333 -33.2333 50 hurdat_atl main 1707 1707 O____________O hurdat_atl AL031853 13.3000 -33.0000 TS 50 0 12.2000 -33.7000 TS 60 19 278
1853242N12336 1853 7 NA NA NOT_NAMED 1853-08-31 09:00:00 TS 13.0614 -34.1985 main 1811 1811 P____________P AL031853 13.4497 -34.0226 TS 55 0 12.2847 -34.5502 TS 60 19 278
1853242N12336 1853 7 NA NA NOT_NAMED 1853-08-31 12:00:00 TS 13.2000 -35.1333 60 hurdat_atl main 1877 1865 O____________O hurdat_atl AL031853 13.6000 -35.0000 TS 60 0 12.4000 -35.4000 TS 60 18 280
1853242N12336 1853 7 NA NA NOT_NAMED 1853-08-31 15:00:00 TS 13.3638 -36.0317 main 1873 1864 P____________P AL031853 13.7496 -35.9226 TS 60 0 12.5922 -36.2499 TS 60 18 281
1853242N12336 1853 7 NA NA NOT_NAMED 1853-08-31 18:00:00 TS 13.5333 -36.9000 60 hurdat_atl main 1865 1826 O____________O hurdat_atl AL031853 13.9000 -36.8000 TS 60 0 12.8000 -37.1000 TS 60 17 281
1853242N12336 1853 7 NA NA NOT_NAMED 1853-08-31 21:00:00 TS 13.6753 -37.7378 main 1826 1762 P____________P AL031853 14.0419 -37.6353 TS 65 1 12.9422 -37.9429 TS 65 17 280
1853242N12336 1853 7 NA NA NOT_NAMED 1853-09-01 00:00:00 TS 13.8333 -38.6000 70 hurdat_atl main 1753 1690 O____________O hurdat_atl AL031853 14.2000 -38.5000 HU 70 1 13.1000 -38.8000 HU 70 18 282
1853242N12336 1853 7 NA NA NOT_NAMED 1853-09-01 03:00:00 TS 14.0500 -39.5615 main 1681 1630 P____________P AL031853 14.4000 -39.4924 HU 70 1 13.3498 -39.6998 HU 72 19 283
1853242N12336 1853 7 NA NA NOT_NAMED 1853-09-01 06:00:00 TS 14.2667 -40.5333 70 hurdat_atl main 1630 1567 O____________O hurdat_atl AL031853 14.6000 -40.5000 HU 70 1 13.6000 -40.6000 HU 75 19 282
1853242N12336 1853 7 NA NA NOT_NAMED 1853-09-01 09:00:00 TS 14.4263 -41.4394 main 1567 1516 P____________P AL031853 14.7571 -41.4302 HU 75 1 13.7646 -41.4578 HU 77 17 280
1853242N12336 1853 7 NA NA NOT_NAMED 1853-09-01 12:00:00 TS 14.5667 -42.3000 80 hurdat_atl main 1517 1471 O____________O hurdat_atl AL031853 14.9000 -42.3000 HU 80 1 13.9000 -42.3000 HU 80 16 280
1853242N12336 1853 7 NA NA NOT_NAMED 1853-09-01 15:00:00 TS 14.7012 -43.1170 main 1471 1434 P____________P AL031853 15.0344 -43.1004 HU 80 1 14.0347 -43.1503 HU 82 16 281
1853242N12336 1853 7 NA NA NOT_NAMED 1853-09-01 18:00:00 TS 14.8667 -43.9333 80 hurdat_atl main 1437 1399 O____________O hurdat_atl AL031853 15.2000 -43.9000 HU 80 1 14.2000 -44.0000 HU 85 17 284
1853242N12336 1853 7 NA NA NOT_NAMED 1853-09-01 21:00:00 TS 15.1040 -44.8141 main 1399 1365 P____________P AL031853 15.4350 -44.7999 HU 85 2 14.4421 -44.8425 HU 87 18 286
1853242N12336 1853 7 NA NA NOT_NAMED 1853-09-02 00:00:00 TS 15.3667 -45.7000 90 hurdat_atl main 1369 1337 O____________O hurdat_atl AL031853 15.7000 -45.7000 HU 90 2 14.7000 -45.7000 HU 90 17 287
1853242N12336 1853 7 NA NA NOT_NAMED 1853-09-02 03:00:00 TS 15.5996 -46.5386 main 1342 1320 P____________P AL031853 15.9494 -46.5078 HU 90 2 14.8998 -46.6003 HU 95 17 286
1853242N12336 1853 7 NA NA NOT_NAMED 1853-09-02 06:00:00 TS 15.8333 -47.3667 90 hurdat_atl main 1315 1303 O____________O hurdat_atl AL031853 16.2000 -47.3000 HU 90 2 15.1000 -47.5000 MH 100 17 286
1853242N12336 1853 7 NA NA NOT_NAMED 1853-09-02 09:00:00 TS 16.0678 -48.1996 main 1309 1295 P____________P AL031853 16.4345 -48.1205 HU 95 2 15.3346 -48.3577 MH 105 17 287
1853242N12336 1853 7 NA NA NOT_NAMED 1853-09-02 12:00:00 TS 16.3333 -49.0667 100 hurdat_atl main 1290 1282 O____________O hurdat_atl AL031853 16.7000 -49.0000 HU 100 3 15.6000 -49.2000 MH 110 18 288
1853242N12336 1853 7 NA NA NOT_NAMED 1853-09-02 15:00:00 TS 16.6416 -50.0119 main 1282 1281 P____________P AL031853 17.0275 -49.9926 HU 105 3 15.8697 -50.0505 MH 115 19 290
1853242N12336 1853 7 NA NA NOT_NAMED 1853-09-02 18:00:00 TS 17.0000 -50.9667 110 hurdat_atl main 1289 1243 O____________O hurdat_atl AL031853 17.4000 -51.0000 HU 110 3 16.2000 -50.9000 MH 120 19 293
1853242N12336 1853 7 NA NA NOT_NAMED 1853-09-02 21:00:00 TS 17.4061 -51.8578 main 1235 1196 P____________P AL031853 17.7844 -51.9155 HU 115 4 16.6496 -51.7424 MH 125 19 296
1853242N12336 1853 7 NA NA NOT_NAMED 1853-09-03 00:00:00 TS 17.8333 -52.7333 120 hurdat_atl main 1196 1157 O____________O hurdat_atl AL031853 18.2000 -52.8000 HU 120 4 17.1000 -52.6000 MH 130 928 19 296
1853242N12336 1853 7 NA NA NOT_NAMED 1853-09-03 03:00:00 TS 18.2431 -53.6435 main 1157 1127 P____________P AL031853 18.6648 -53.7149 HU 125 4 17.3998 -53.5009 MH 130 19 295
1853242N12336 1853 7 NA NA NOT_NAMED 1853-09-03 06:00:00 TS 18.6333 -54.5333 130 hurdat_atl main 1127 1086 O____________O hurdat_atl AL031853 19.1000 -54.6000 HU 130 4 17.7000 -54.4000 MH 130 18 294
1853242N12336 1853 7 NA NA NOT_NAMED 1853-09-03 09:00:00 TS 18.9752 -55.3533 main 1076 1004 P____________P AL031853 19.3917 -55.4013 HU 130 4 18.1420 -55.2574 MH 130 17 294
1853242N12336 1853 7 NA NA NOT_NAMED 1853-09-03 12:00:00 TS 19.3333 -56.1667 130 924 hurdat_atl main 994 917 O____________O hurdat_atl AL031853 19.7000 -56.2000 HU 130 924 4 18.6000 -56.1000 MH 130 18 297
1853242N12336 1853 7 NA NA NOT_NAMED 1853-09-03 15:00:00 TS 19.7879 -57.0324 main 917 832 P____________P AL031853 20.2071 -57.0769 HU 130 4 18.9495 -56.9434 MH 130 19 298
1853242N12336 1853 7 NA NA NOT_NAMED 1853-09-03 18:00:00 TS 20.2333 -57.9333 130 hurdat_atl main 832 750 O____________O hurdat_atl AL031853 20.7000 -58.0000 HU 130 4 19.3000 -57.8000 MH 130 19 294
1853242N12336 1853 7 NA NA NOT_NAMED 1853-09-03 21:00:00 TS 20.5547 -58.8626 main 744 673 P____________P AL031853 20.9646 -58.9439 HU 125 4 19.7348 -58.7001 MH 127 19 290
1853242N12336 1853 7 NA NA NOT_NAMED 1853-09-04 00:00:00 TS 20.8667 -59.8000 120 hurdat_atl main 668 600 O____________O hurdat_atl AL031853 21.2000 -59.9000 HU 120 4 20.2000 -59.6000 MH 125 19 292
1853242N12336 1853 7 NA NA NOT_NAMED 1853-09-04 03:00:00 TS 21.2728 -60.7218 main 606 557 P____________P AL031853 21.5845 -60.8499 HU 120 4 20.6496 -60.4655 MH 125 19 296
1853242N12336 1853 7 NA NA NOT_NAMED 1853-09-04 06:00:00 TS 21.7000 -61.6333 120 hurdat_atl main 557 523 O____________O hurdat_atl AL031853 22.0000 -61.8000 HU 120 4 21.1000 -61.3000 MH 125 19 296
1853242N12336 1853 7 NA NA NOT_NAMED 1853-09-04 09:00:00 TS 22.0830 -62.5489 main 525 502 P____________P AL031853 22.3573 -62.7729 HU 120 4 21.5344 -62.1009 MH 125 18 295
1853242N12336 1853 7 NA NA NOT_NAMED 1853-09-04 12:00:00 TS 22.4667 -63.4333 120 hurdat_atl main 512 503 O____________O hurdat_atl AL031853 22.7000 -63.7000 HU 120 4 22.0000 -62.9000 MH 125 18 297
1853242N12336 1853 7 NA NA NOT_NAMED 1853-09-04 15:00:00 TS 22.8701 -64.2557 main 521 518 P____________P AL031853 23.0415 -64.5083 HU 120 4 22.5273 -63.7504 MH 125 17 299
1853242N12336 1853 7 NA NA NOT_NAMED 1853-09-04 18:00:00 TS 23.3000 -65.0667 120 hurdat_atl main 550 549 O____________O hurdat_atl AL031853 23.4000 -65.3000 HU 120 4 23.1000 -64.6000 MH 125 18 300
1853242N12336 1853 7 NA NA NOT_NAMED 1853-09-04 21:00:00 TS 23.7565 -65.9387 main 603 599 P____________P AL031853 23.7926 -66.2076 HU 120 4 23.6844 -65.4010 MH 122 18 300
1853242N12336 1853 7 NA NA NOT_NAMED 1853-09-05 00:00:00 TS 24.2333 -66.8000 120 hurdat_atl main 605 605 O____________O hurdat_atl AL031853 24.2000 -67.1000 HU 120 4 24.3000 -66.2000 MH 120 18 302
1853242N12336 1853 7 NA NA NOT_NAMED 1853-09-05 03:00:00 TS 24.7136 -67.5965 main 621 621 P____________P AL031853 24.5993 -67.8732 HU 120 4 24.9421 -67.0431 MH 120 17 304
1853242N12336 1853 7 NA NA NOT_NAMED 1853-09-05 06:00:00 TS 25.2000 -68.3667 120 hurdat_atl main 644 630 O____________O hurdat_atl AL031853 25.0000 -68.6000 HU 120 4 25.6000 -67.9000 MH 120 17 304
1853242N12336 1853 7 NA NA NOT_NAMED 1853-09-05 09:00:00 TS 25.6782 -69.1755 main 634 628 P____________P AL031853 25.4001 -69.3876 HU 120 4 26.2345 -68.7513 MH 120 17 304
1853242N12336 1853 7 NA NA NOT_NAMED 1853-09-05 12:00:00 TS 26.1667 -69.9333 120 hurdat_atl main 641 636 O____________O hurdat_atl AL031853 25.8000 -70.1000 HU 120 4 26.9000 -69.6000 MH 120 16 309
1853242N12336 1853 7 NA NA NOT_NAMED 1853-09-05 15:00:00 TS 26.6827 -70.5782 main 661 661 P____________P AL031853 26.2069 -70.6455 HU 120 4 27.6344 -70.4435 MH 117 15 313
1853242N12336 1853 7 NA NA NOT_NAMED 1853-09-05 18:00:00 TS 27.2000 -71.1667 120 hurdat_atl main 694 686 O____________O hurdat_atl AL031853 26.6000 -71.1000 HU 120 4 28.4000 -71.3000 MH 115 15 313
1853242N12336 1853 7 NA NA NOT_NAMED 1853-09-05 21:00:00 TS 27.6806 -71.7748 main 681 657 P____________P AL031853 26.9423 -71.5581 HU 120 4 29.1573 -72.2081 MH 115 14 312
1853242N12336 1853 7 NA NA NOT_NAMED 1853-09-06 00:00:00 TS 28.1667 -72.3667 120 hurdat_atl main 654 638 O____________O hurdat_atl AL031853 27.3000 -72.0000 HU 120 4 29.9000 -73.1000 MH 115 15 314
1853242N12336 1853 7 NA NA NOT_NAMED 1853-09-06 03:00:00 TS 28.6948 -72.9537 main 637 636 P____________P AL031853 27.7350 -72.4724 HU 120 4 30.6142 -73.9164 MH 115 15 317
1853242N12336 1853 7 NA NA NOT_NAMED 1853-09-06 06:00:00 TS 29.2333 -73.5000 120 hurdat_atl main 638 601 O____________O hurdat_atl AL031853 28.2000 -72.9000 HU 120 4 31.3000 -74.7000 MH 115 14 319
1853242N12336 1853 7 NA NA NOT_NAMED 1853-09-06 09:00:00 TS 29.7576 -74.0215 main 592 533 P____________P AL031853 28.6348 -73.2306 HU 120 4 32.0033 -75.6035 MH 112 13 322
1853242N12336 1853 7 NA NA NOT_NAMED 1853-09-06 12:00:00 TS 30.2667 -74.4333 120 hurdat_atl main 525 472 O____________O hurdat_atl AL031853 29.1000 -73.5000 HU 120 4 32.6000 -76.3000 MH 110 12 330
1853242N12336 1853 7 NA NA NOT_NAMED 1853-09-06 15:00:00 TS 30.7597 -74.6989 main 463 421 P____________P AL031853 29.6425 -73.7725 HU 120 4 32.9940 -76.5516 MH 110 10 340
1853242N12336 1853 7 NA NA NOT_NAMED 1853-09-06 18:00:00 TS 31.2333 -74.8333 120 hurdat_atl main 421 366 O____________O hurdat_atl AL031853 30.2000 -74.0000 HU 120 4 33.3000 -76.5000 MH 110 9 348
1853242N12336 1853 7 NA NA NOT_NAMED 1853-09-06 21:00:00 TS 31.6783 -74.9241 main 366 325 P____________P AL031853 30.6850 -74.2023 HU 115 4 33.6649 -76.3678 MH 107 9 357
1853242N12336 1853 7 NA NA NOT_NAMED 1853-09-07 00:00:00 TS 32.1333 -74.9000 110 hurdat_atl main 325 281 O____________O hurdat_atl AL031853 31.2000 -74.3000 HU 110 3 34.0000 -76.1000 MH 105 10 9
1853242N12336 1853 7 NA NA NOT_NAMED 1853-09-07 03:00:00 TS 32.6475 -74.7495 main 287 249 P____________P AL031853 31.8350 -74.2381 HU 110 3 34.2726 -75.7725 MH 105 11 17
1853242N12336 1853 7 NA NA NOT_NAMED 1853-09-07 06:00:00 TS 33.1667 -74.5333 110 hurdat_atl main 248 226 O____________O hurdat_atl AL031853 32.5000 -74.1000 HU 110 3 34.5000 -75.4000 MH 105 10 17
1853242N12336 1853 7 NA NA NOT_NAMED 1853-09-07 09:00:00 TS 33.6405 -74.3939 main 226 211 P____________P AL031853 33.1071 -74.0586 HU 105 3 34.7073 -75.0646 MH 102 10 18
1853242N12336 1853 7 NA NA NOT_NAMED 1853-09-07 12:00:00 TS 34.1000 -74.1667 100 hurdat_atl main 211 204 O____________O hurdat_atl AL031853 33.7000 -73.9000 HU 100 3 34.9000 -74.7000 MH 100 952 11 30
1853242N12336 1853 7 NA NA NOT_NAMED 1853-09-07 15:00:00 TS 34.5666 -73.7483 main 210 210 P____________P AL031853 34.3075 -73.4827 HU 100 3 35.0848 -74.2795 MH 100 12 40
1853242N12336 1853 7 NA NA NOT_NAMED 1853-09-07 18:00:00 TS 35.0333 -73.2000 100 hurdat_atl main 226 222 O____________O hurdat_atl AL031853 34.9000 -72.9000 HU 100 3 35.3000 -73.8000 MH 100 13 44
1853242N12336 1853 7 NA NA NOT_NAMED 1853-09-07 21:00:00 TS 35.5170 -72.6280 main 263 262 P____________P AL031853 35.4794 -72.3020 HU 100 3 35.5922 -73.2800 MH 100 14 47
1853242N12336 1853 7 NA NA NOT_NAMED 1853-09-08 00:00:00 TS 35.9667 -71.9667 100 hurdat_atl main 315 315 O____________O hurdat_atl AL031853 36.0000 -71.6000 HU 100 3 35.9000 -72.7000 MH 100 14 54
1853242N12336 1853 7 NA NA NOT_NAMED 1853-09-08 03:00:00 TS 36.3175 -71.2708 main 380 380 P____________P AL031853 36.4295 -70.8014 HU 100 3 36.0937 -72.2097 MH 100 14 61
1853242N12336 1853 7 NA NA NOT_NAMED 1853-09-08 06:00:00 TS 36.6667 -70.4000 100 hurdat_atl main 450 450 O____________O hurdat_atl AL031853 36.8000 -69.9000 HU 100 3 36.4000 -71.4000 MH 100 977 18 64
1853242N12336 1853 7 NA NA NOT_NAMED 1853-09-08 09:00:00 TS 37.1041 -69.2759 main 500 489 P____________P AL031853 37.1562 -68.9585 HU 100 3 37.0000 -69.9105 MH 100 21 65
1853242N12336 1853 7 NA NA NOT_NAMED 1853-09-08 12:00:00 TS 37.5667 -67.9667 100 hurdat_atl main 487 486 O____________O hurdat_atl AL031853 37.5000 -67.9000 HU 100 3 37.7000 -68.1000 MH 100 23 67
1853242N12336 1853 7 NA NA NOT_NAMED 1853-09-08 15:00:00 TS 38.0047 -66.6421 main 503 499 P____________P AL031853 37.8408 -66.7306 HU 100 3 38.3326 -66.4651 MH 100 24 69
1853242N12336 1853 7 NA NA NOT_NAMED 1853-09-08 18:00:00 TS 38.4333 -65.1667 100 hurdat_atl main 548 533 O____________O hurdat_atl AL031853 38.2000 -65.4000 HU 100 3 38.9000 -64.7000 MH 100 27 71
1853242N12336 1853 7 NA NA NOT_NAMED 1853-09-08 21:00:00 TS 38.8920 -63.3878 main 535 533 P____________P AL031853 38.5949 -63.9019 HU 100 3 39.3521 -62.6508 MH 100 31 73
1853242N12336 1853 7 NA NA NOT_NAMED 1853-09-09 00:00:00 TS 39.3500 -61.4000 100 hurdat_atl main 559 564 O____________O hurdat_atl AL031853 39.0000 -62.3000 HU 100 3 39.7000 -60.5000 MH 100 33 74
1853242N12336 1853 7 NA NA NOT_NAMED 1853-09-09 03:00:00 TS 39.7716 -59.3261 main 614 614 _____________P AL031853 HU -1 39.9369 -58.5834 MH 97 39 78
1853242N12336 1853 7 NA NA NOT_NAMED 1853-09-09 06:00:00 TS 40.2000 -56.4000 90 hurdat_atl main 674 674 _____________O 40.2000 -56.4000 HU 95 45 80
1853242N12336 1853 7 NA NA NOT_NAMED 1853-09-09 09:00:00 TS 40.5430 -53.4945 main 678 653 _____________P 40.5430 -53.4945 HU 95 47 80
1853242N12336 1853 7 NA NA NOT_NAMED 1853-09-09 12:00:00 TS 41.0000 -50.3000 80 hurdat_atl main 664 664 _____________O 41.0000 -50.3000 HU 95 49 78
1853242N12336 1853 7 NA NA NOT_NAMED 1853-09-09 15:00:00 TS 41.5977 -47.1395 main 737 737 _____________P 41.5977 -47.1395 HU 92 47 74
1853242N12336 1853 7 NA NA NOT_NAMED 1853-09-09 18:00:00 TS 42.3000 -44.2000 70 hurdat_atl main 855 855 _____________O 42.3000 -44.2000 HU 90 42 70
1853242N12336 1853 7 NA NA NOT_NAMED 1853-09-09 21:00:00 TS 43.0227 -41.7810 main 973 973 _____________P 43.0227 -41.7810 HU 87 37 66
1853242N12336 1853 7 NA NA NOT_NAMED 1853-09-10 00:00:00 TS 43.8000 -39.6000 70 hurdat_atl main 1085 1085 _____________O 43.8000 -39.6000 HU 85 36 65
1853242N12336 1853 7 NA NA NOT_NAMED 1853-09-10 03:00:00 TS 44.5450 -37.3013 main 1220 1220 _____________P 44.5450 -37.3013 HU 82 36 65
1853242N12336 1853 7 NA NA NOT_NAMED 1853-09-10 06:00:00 TS 45.3000 -35.0000 70 hurdat_atl main 1362 1362 _____________O 45.3000 -35.0000 HU 80 35 67
1853242N12336 1853 7 NA NA NOT_NAMED 1853-09-10 09:00:00 TS 45.9311 -32.6780 main 1517 1517 _____________P 45.9311 -32.6780 HU 77 36 65
1853242N12336 1853 7 NA NA NOT_NAMED 1853-09-10 12:00:00 TS 46.8000 -30.3000 70 hurdat_atl main 1533 1308 _____________O 46.8000 -30.3000 HU 75 953 41 56
1853242N12336 1853 7 NA NA NOT_NAMED 1853-09-10 15:00:00 TS 48.1846 -27.7117 main 1290 1057 _____________P 48.1846 -27.7117 HU 72 956 46 50
1853242N12336 1853 7 NA NA NOT_NAMED 1853-09-10 18:00:00 ET 49.8000 -25.0000 70 hurdat_atl main 1040 821 _____________I 49.8000 -25.0000 EX 70 959 47 48
1853242N12336 1853 7 NA NA NOT_NAMED 1853-09-10 21:00:00 ET 51.2924 -22.2822 main 813 624 _____________P 51.2924 -22.2822 EX 70 962 45 49
1853242N12336 1853 7 NA NA NOT_NAMED 1853-09-11 00:00:00 ET 52.8000 -19.5000 main 611 433 _____________O 52.8000 -19.5000 EX 70 965 46 49
1853242N12336 1853 7 NA NA NOT_NAMED 1853-09-11 03:00:00 ET 54.3157 -16.5928 main 419 282 _____________P 54.3157 -16.5928 EX 67 46 49
1853242N12336 1853 7 NA NA NOT_NAMED 1853-09-11 06:00:00 ET 55.8000 -13.5000 main 279 _____________O 55.8000 -13.5000 EX 65 46 50

IBTrACS Databaseについて

本データベースは、米国NOAAが公開する1842年以降の世界の熱帯低気圧のベストトラックデータアーカイブInternational Best Track Archive for Climate Stewardship (IBTrACS)を、ウェブで閲覧しやすい形式に変換したものです。

最終更新日:2021-12-06